createdAt,value
2023-01-24T00:01:13.720Z,101099.44
2023-01-24T00:03:41.039Z,101105.78
2023-01-24T00:06:08.130Z,101104.38
2023-01-24T00:08:35.611Z,101103.59
2023-01-24T00:11:04.092Z,101105.44
2023-01-24T00:13:32.164Z,101102.72
2023-01-24T00:16:18.342Z,101103.06
2023-01-24T00:18:46.226Z,101109.84
2023-01-24T00:21:20.148Z,101116.06
2023-01-24T00:23:48.497Z,101107.53
2023-01-24T00:26:16.192Z,101103.59
2023-01-24T00:28:45.129Z,101105.91
2023-01-24T00:31:12.331Z,101099.66
2023-01-24T00:33:39.731Z,101098.03
2023-01-24T00:36:08.290Z,101105.78
2023-01-24T00:38:35.952Z,101099.25
2023-01-24T00:41:02.909Z,101099.75
2023-01-24T00:43:31.217Z,101100.63
2023-01-24T00:45:58.265Z,101096.69
2023-01-24T00:48:25.644Z,101099.00
2023-01-24T00:50:53.637Z,101095.16
2023-01-24T00:53:20.991Z,101088.50
2023-01-24T00:55:48.388Z,101093.28
2023-01-24T00:58:16.017Z,101093.28
2023-01-24T01:00:43.134Z,101098.31
2023-01-24T01:03:18.134Z,101099.84
2023-01-24T01:05:45.449Z,101102.28
2023-01-24T01:08:13.196Z,101096.81
2023-01-24T01:10:40.662Z,101101.94
2023-01-24T01:13:07.911Z,101104.66
2023-01-24T01:15:35.307Z,101103.88
2023-01-24T01:18:04.392Z,101105.09
2023-01-24T01:20:31.315Z,101110.66
2023-01-24T01:22:58.504Z,101119.19
2023-01-24T01:25:25.476Z,101119.63
2023-01-24T01:27:52.787Z,101117.66
2023-01-24T01:30:19.872Z,101122.78
2023-01-24T01:32:47.615Z,101127.72
2023-01-24T01:35:14.664Z,101119.97
2023-01-24T01:37:44.305Z,101124.66
2023-01-24T01:40:11.549Z,101130.56
2023-01-24T01:42:58.962Z,101123.66
2023-01-24T01:45:38.321Z,101118.53
2023-01-24T01:48:18.449Z,101120.06
2023-01-24T01:50:50.131Z,101138.84
2023-01-24T01:53:18.016Z,101137.00
2023-01-24T01:55:48.443Z,101143.34
2023-01-24T01:58:17.015Z,101140.94
2023-01-24T02:00:51.064Z,101141.03
2023-01-24T02:03:40.102Z,101149.97
2023-01-24T02:06:11.747Z,101146.06
2023-01-24T02:08:39.420Z,101147.25
2023-01-24T02:11:26.835Z,101153.06
2023-01-24T02:14:14.223Z,101144.84
2023-01-24T02:16:41.253Z,101149.88
2023-01-24T02:19:13.073Z,101150.66
2023-01-24T02:21:40.501Z,101149.16
2023-01-24T02:24:18.001Z,101158.53
2023-01-24T02:26:44.980Z,101149.16
2023-01-24T02:29:13.569Z,101151.53
2023-01-24T02:32:00.388Z,101148.81
2023-01-24T02:34:28.591Z,101148.13
2023-01-24T02:36:57.638Z,101155.44
2023-01-24T02:39:32.132Z,101139.81
2023-01-24T02:42:07.674Z,101146.94
2023-01-24T02:44:47.733Z,101143.34
2023-01-24T02:47:14.852Z,101142.22
2023-01-24T02:49:42.038Z,101137.09
2023-01-24T02:52:28.068Z,101137.97
2023-01-24T02:54:55.481Z,101141.03
2023-01-24T02:57:41.067Z,101147.25
2023-01-24T03:00:08.832Z,101147.25
2023-01-24T03:02:37.066Z,101145.72
2023-01-24T03:05:04.475Z,101146.50
2023-01-24T03:07:42.413Z,101149.31
2023-01-24T03:10:12.957Z,101151.19
2023-01-24T03:12:59.649Z,101146.59
2023-01-24T03:15:45.741Z,101152.50
2023-01-24T03:18:31.415Z,101155.63
2023-01-24T03:21:17.270Z,101157.53
2023-01-24T03:24:03.040Z,101155.22
2023-01-24T03:26:49.336Z,101157.09
2023-01-24T03:29:36.204Z,101156.66
2023-01-24T03:32:22.330Z,101153.59
2023-01-24T03:34:52.659Z,101158.72
2023-01-24T03:37:42.125Z,101159.84
2023-01-24T03:40:14.888Z,101155.44
2023-01-24T03:42:51.899Z,101165.63
2023-01-24T03:45:23.742Z,101164.88
2023-01-24T03:47:55.624Z,101166.72
2023-01-24T03:50:44.469Z,101167.94
2023-01-24T03:53:12.393Z,101164.09
2023-01-24T03:55:41.083Z,101165.22
2023-01-24T03:58:09.242Z,101162.13
2023-01-24T04:00:36.479Z,101164.09
2023-01-24T04:03:13.384Z,101161.34
2023-01-24T04:05:40.244Z,101162.13
2023-01-24T04:08:08.855Z,101165.56
2023-01-24T04:10:38.897Z,101161.69
2023-01-24T04:13:09.228Z,101164.09
2023-01-24T04:15:38.748Z,101154.78
2023-01-24T04:18:24.675Z,101157.09
2023-01-24T04:20:51.723Z,101158.28
2023-01-24T04:23:19.555Z,101163.00
2023-01-24T04:25:51.068Z,101163.34
2023-01-24T04:28:19.221Z,101170.34
2023-01-24T04:30:46.290Z,101169.13
2023-01-24T04:33:28.043Z,101172.19
2023-01-24T04:35:59.167Z,101171.94
2023-01-24T04:38:26.727Z,101173.84
2023-01-24T04:41:02.305Z,101171.84
2023-01-24T04:43:36.753Z,101173.06
2023-01-24T04:46:04.920Z,101166.81
2023-01-24T04:48:49.548Z,101173.84
2023-01-24T04:51:16.642Z,101176.66
2023-01-24T04:53:45.654Z,101179.31
2023-01-24T04:56:15.339Z,101180.75
2023-01-24T04:58:42.790Z,101177.31
2023-01-24T05:01:09.701Z,101180.94
2023-01-24T05:03:47.394Z,101172.28
2023-01-24T05:06:14.392Z,101184.78
2023-01-24T05:08:41.734Z,101183.13
2023-01-24T05:11:08.769Z,101184.00
2023-01-24T05:13:45.194Z,101176.16
2023-01-24T05:16:12.290Z,101188.94
2023-01-24T05:18:39.531Z,101185.88
2023-01-24T05:21:07.689Z,101186.75
2023-01-24T05:23:35.407Z,101183.66
2023-01-24T05:26:02.789Z,101190.25
2023-01-24T05:28:31.671Z,101190.16
2023-01-24T05:31:01.664Z,101189.72
2023-01-24T05:33:31.428Z,101191.69
2023-01-24T05:35:59.635Z,101195.53
2023-01-24T05:38:28.074Z,101187.00
2023-01-24T05:40:54.997Z,101204.16
2023-01-24T05:43:22.189Z,101204.59
2023-01-24T05:45:52.124Z,101199.88
2023-01-24T05:48:19.564Z,101205.78
2023-01-24T05:50:46.704Z,101208.09
2023-01-24T05:53:15.312Z,101214.34
2023-01-24T05:55:43.652Z,101223.81
2023-01-24T05:58:13.297Z,101221.44
2023-01-24T06:00:52.951Z,101220.25
2023-01-24T06:03:35.978Z,101231.19
2023-01-24T06:06:05.063Z,101229.09
2023-01-24T06:08:33.988Z,101226.81
2023-01-24T06:11:05.535Z,101231.84
2023-01-24T06:13:33.836Z,101229.53
2023-01-24T06:16:03.762Z,101237.41
2023-01-24T06:18:32.214Z,101248.59
2023-01-24T06:20:59.801Z,101251.34
2023-01-24T06:23:28.184Z,101255.63
2023-01-24T06:26:02.267Z,101269.69
2023-01-24T06:28:32.905Z,101259.88
2023-01-24T06:31:18.571Z,101273.91
2023-01-24T06:34:04.575Z,101268.09
2023-01-24T06:36:40.477Z,101272.03
2023-01-24T06:39:15.148Z,101278.69
2023-01-24T06:41:42.452Z,101281.75
2023-01-24T06:44:11.303Z,101286.88
2023-01-24T06:46:38.451Z,101281.41
2023-01-24T06:49:05.848Z,101286.38
2023-01-24T06:51:32.791Z,101284.50
2023-01-24T06:54:03.481Z,101288.75
2023-01-24T06:56:30.921Z,101295.34
2023-01-24T06:59:00.694Z,101297.75
2023-01-24T07:01:27.865Z,101298.16
2023-01-24T07:03:55.197Z,101307.06
2023-01-24T07:06:24.218Z,101297.31
2023-01-24T07:08:51.495Z,101299.53
2023-01-24T07:11:18.345Z,101298.88
2023-01-24T07:13:45.672Z,101301.09
2023-01-24T07:16:12.677Z,101304.59
2023-01-24T07:18:42.286Z,101306.91
2023-01-24T07:21:09.513Z,101301.44
2023-01-24T07:23:38.108Z,101308.06
2023-01-24T07:26:05.268Z,101308.34
2023-01-24T07:28:32.558Z,101319.19
2023-01-24T07:30:59.775Z,101317.22
2023-01-24T07:33:27.155Z,101325.69
2023-01-24T07:35:54.302Z,101329.97
2023-01-24T07:38:25.454Z,101333.03
2023-01-24T07:40:52.438Z,101339.22
2023-01-24T07:43:21.381Z,101333.31
2023-01-24T07:45:48.847Z,101331.31
2023-01-24T07:48:17.429Z,101335.50
2023-01-24T07:50:44.386Z,101340.56
2023-01-24T07:53:11.742Z,101334.66
2023-01-24T07:55:38.683Z,101340.91
2023-01-24T07:58:06.043Z,101357.94
2023-01-24T08:00:32.990Z,101347.72
2023-01-24T08:03:00.458Z,101354.41
2023-01-24T08:05:27.443Z,101350.13
2023-01-24T08:07:55.020Z,101353.63
2023-01-24T08:10:23.260Z,101347.53
2023-01-24T08:12:51.736Z,101346.19
2023-01-24T08:15:21.240Z,101358.56
2023-01-24T08:17:48.408Z,101362.34
2023-01-24T08:20:15.426Z,101368.91
2023-01-24T08:22:56.141Z,101373.59
2023-01-24T08:25:25.090Z,101371.09
2023-01-24T08:27:52.676Z,101368.47
2023-01-24T08:30:19.719Z,101373.06
2023-01-24T08:32:47.310Z,101380.44
2023-01-24T08:35:14.393Z,101380.00
2023-01-24T08:37:41.945Z,101384.28
2023-01-24T08:40:09.436Z,101384.03
2023-01-24T08:42:36.963Z,101386.00
2023-01-24T08:45:06.307Z,101386.75
2023-01-24T08:47:36.694Z,101389.22
2023-01-24T08:50:03.841Z,101386.66
2023-01-24T08:52:31.143Z,101387.78
2023-01-24T08:55:00.596Z,101387.69
2023-01-24T08:57:27.794Z,101376.94
2023-01-24T09:00:59.237Z,101388.22
2023-01-24T09:03:28.132Z,101395.31
2023-01-24T09:06:01.107Z,101394.22
2023-01-24T09:08:28.700Z,101399.38
2023-01-24T09:10:58.237Z,101389.63
2023-01-24T09:13:25.993Z,101400.38
2023-01-24T09:15:55.138Z,101394.13
2023-01-24T09:18:22.842Z,101414.41
2023-01-24T09:20:49.946Z,101414.06
2023-01-24T09:23:17.159Z,101418.34
2023-01-24T09:25:50.197Z,101416.81
2023-01-24T09:28:21.032Z,101420.66
2023-01-24T09:30:51.290Z,101419.88
2023-01-24T09:37:29.898Z,101424.19
2023-01-24T09:39:59.172Z,101421.19
2023-01-24T09:42:26.412Z,101426.13
2023-01-24T09:44:58.655Z,101418.94
2023-01-24T09:47:34.958Z,101416.41
2023-01-24T09:50:09.895Z,101426.03
2023-01-24T09:52:40.517Z,101420.38
2023-01-24T09:55:25.132Z,101414.03
2023-01-24T09:57:58.955Z,101403.25
2023-01-24T10:00:28.007Z,101405.47
2023-01-24T10:02:56.658Z,101414.13
2023-01-24T10:05:28.093Z,101408.13
2023-01-24T10:08:03.034Z,101409.53
2023-01-24T10:10:39.082Z,101411.03
2023-01-24T10:13:21.848Z,101410.63
2023-01-24T10:16:03.615Z,101410.88
2023-01-24T10:18:37.482Z,101403.41
2023-01-24T10:21:19.053Z,101400.69
2023-01-24T10:23:53.736Z,101408.22
2023-01-24T10:26:30.695Z,101411.97
2023-01-24T10:29:00.812Z,101408.03
2023-01-24T10:31:30.222Z,101399.81
2023-01-24T10:34:32.435Z,101401.38
2023-01-24T10:37:06.782Z,101392.69
2023-01-24T10:39:34.088Z,101389.00
2023-01-24T10:42:01.040Z,101388.47
2023-01-24T10:44:29.443Z,101389.25
2023-01-24T10:47:05.730Z,101392.59
2023-01-24T10:49:35.899Z,101382.44
2023-01-24T10:52:10.593Z,101381.31
2023-01-24T10:54:48.936Z,101384.28
2023-01-24T10:57:24.978Z,101383.63
2023-01-24T10:59:52.381Z,101382.09
2023-01-24T11:02:23.886Z,101377.59
2023-01-24T11:05:13.546Z,101377.94
2023-01-24T11:07:45.429Z,101382.44
2023-01-24T11:10:12.750Z,101384.72
2023-01-24T11:12:48.114Z,101373.22
2023-01-24T11:15:20.059Z,101372.00
2023-01-24T11:17:47.233Z,101369.41
2023-01-24T11:20:29.884Z,101376.13
2023-01-24T11:23:13.005Z,101367.00
2023-01-24T11:25:54.396Z,101357.03
2023-01-24T11:28:24.469Z,101358.84
2023-01-24T11:30:52.255Z,101360.31
2023-01-24T11:33:28.453Z,101358.66
2023-01-24T11:36:00.356Z,101351.53
2023-01-24T11:38:33.654Z,101356.59
2023-01-24T11:41:03.841Z,101353.84
2023-01-24T11:43:43.402Z,101345.09
2023-01-24T11:46:10.521Z,101352.53
2023-01-24T11:48:47.572Z,101349.78
2023-01-24T11:51:25.581Z,101355.03
2023-01-24T11:54:10.876Z,101340.47
2023-01-24T11:56:41.068Z,101335.44
2023-01-24T11:59:29.061Z,101335.84
2023-01-24T12:02:02.428Z,101342.09
2023-01-24T12:04:29.306Z,101352.28
2023-01-24T12:07:16.690Z,101351.25
2023-01-24T12:09:56.156Z,101343.97
2023-01-24T12:12:35.320Z,101348.94
2023-01-24T12:15:03.700Z,101345.09
2023-01-24T12:17:37.791Z,101348.94
2023-01-24T12:20:30.194Z,101350.38
2023-01-24T12:23:03.637Z,101344.19
2023-01-24T12:25:35.368Z,101345.75
2023-01-24T12:28:05.547Z,101337.19
2023-01-24T12:30:35.110Z,101340.38
2023-01-24T12:33:14.539Z,101335.34
2023-01-24T12:35:46.148Z,101336.09
2023-01-24T12:38:15.661Z,101331.81
2023-01-24T12:40:45.704Z,101330.94
2023-01-24T12:43:25.103Z,101332.59
2023-01-24T12:46:17.903Z,101329.31
2023-01-24T12:48:48.295Z,101333.91
2023-01-24T12:51:27.813Z,101325.59
2023-01-24T12:54:03.147Z,101332.94
2023-01-24T12:56:39.113Z,101329.00
2023-01-24T12:59:10.208Z,101330.97
2023-01-24T13:01:40.225Z,101315.94
2023-01-24T13:04:07.435Z,101321.53
2023-01-24T13:06:37.413Z,101315.69
2023-01-24T13:09:10.800Z,101308.47
2023-01-24T13:11:42.309Z,101304.31
2023-01-24T13:14:22.673Z,101306.06
2023-01-24T13:16:52.503Z,101315.59
2023-01-24T13:19:25.919Z,101305.41
2023-01-24T13:21:59.080Z,101305.63
2023-01-24T13:24:26.309Z,101313.41
2023-01-24T13:27:13.387Z,101304.66
2023-01-24T13:29:49.953Z,101288.94
2023-01-24T13:32:18.012Z,101306.50
2023-01-24T13:34:50.388Z,101302.44
2023-01-24T13:37:22.341Z,101315.19
2023-01-24T13:40:00.121Z,101308.34
2023-01-24T13:42:35.160Z,101323.06
2023-01-24T13:45:23.034Z,101326.78
2023-01-24T13:47:50.796Z,101323.38
2023-01-24T13:50:19.248Z,101318.56
2023-01-24T13:52:55.187Z,101327.84
2023-01-24T13:55:23.189Z,101322.38
2023-01-24T13:58:00.129Z,101324.56
2023-01-24T14:00:28.800Z,101325.34
2023-01-24T14:02:58.663Z,101329.31
2023-01-24T14:05:32.730Z,101328.78
2023-01-24T14:08:17.145Z,101334.25
2023-01-24T14:10:54.475Z,101338.97
2023-01-24T14:13:39.994Z,101344.97
2023-01-24T14:16:10.318Z,101352.00
2023-01-24T14:18:51.779Z,101351.25
2023-01-24T14:21:22.691Z,101349.25
2023-01-24T14:23:58.581Z,101350.56
2023-01-24T14:27:31.303Z,101346.59
2023-01-24T14:30:10.491Z,101335.44
2023-01-24T14:32:46.251Z,101336.28
2023-01-24T14:35:30.682Z,101341.78
2023-01-24T14:38:17.546Z,101339.13
2023-01-24T14:40:51.800Z,101343.28
2023-01-24T14:43:20.710Z,101345.00
2023-01-24T14:45:48.550Z,101342.72
2023-01-24T14:48:23.000Z,101365.84
2023-01-24T14:51:19.468Z,101369.75
2023-01-24T14:53:47.701Z,101371.84
2023-01-24T14:56:15.294Z,101372.50
2023-01-24T14:58:42.683Z,101377.34
2023-01-24T15:01:42.226Z,101364.06
2023-01-24T15:04:28.973Z,101370.72
2023-01-24T15:07:06.414Z,101380.50
2023-01-24T15:09:33.990Z,101379.91
2023-01-24T15:12:12.131Z,101379.81
2023-01-24T15:14:41.146Z,101373.91
2023-01-24T15:17:20.777Z,101369.31
2023-01-24T15:19:53.402Z,101381.53
2023-01-24T15:22:21.151Z,101379.13
2023-01-24T15:24:56.514Z,101381.88
2023-01-24T15:27:35.811Z,101379.22
2023-01-24T15:30:19.901Z,101377.38
2023-01-24T15:32:46.949Z,101380.53
2023-01-24T15:35:24.767Z,101385.59
2023-01-24T15:38:07.304Z,101388.75
2023-01-24T15:40:35.443Z,101385.66
2023-01-24T15:43:21.784Z,101385.91
2023-01-24T15:46:15.693Z,101392.69
2023-01-24T15:48:59.180Z,101394.22
2023-01-24T15:51:37.933Z,101392.38
2023-01-24T15:54:10.464Z,101389.19
2023-01-24T15:56:51.348Z,101393.09
2023-01-24T15:59:20.086Z,101394.75
2023-01-24T16:01:47.591Z,101387.28
2023-01-24T16:04:16.092Z,101394.75
2023-01-24T16:06:45.747Z,101392.38
2023-01-24T16:09:13.158Z,101394.31
2023-01-24T16:11:41.931Z,101390.81
2023-01-24T16:14:22.657Z,101390.47
2023-01-24T16:16:51.501Z,101392.09
2023-01-24T16:19:22.870Z,101399.03
2023-01-24T16:21:50.792Z,101394.75
2023-01-24T16:24:18.710Z,101395.84
2023-01-24T16:26:50.808Z,101389.50
2023-01-24T16:29:25.789Z,101385.16
2023-01-24T16:31:53.320Z,101392.69
2023-01-24T16:34:20.535Z,101387.19
2023-01-24T16:36:48.095Z,101395.75
2023-01-24T16:39:20.178Z,101394.56
2023-01-24T16:41:48.389Z,101391.84
2023-01-24T16:44:15.647Z,101391.84
2023-01-24T16:46:47.880Z,101391.84
2023-01-24T16:49:15.123Z,101400.38
2023-01-24T16:51:46.404Z,101394.22
2023-01-24T16:54:14.031Z,101402.78
2023-01-24T16:56:43.708Z,101403.97
2023-01-24T16:59:10.819Z,101403.97
2023-01-24T17:01:38.885Z,101410.66
2023-01-24T17:04:06.729Z,101413.41
2023-01-24T17:06:34.287Z,101412.19
2023-01-24T17:09:01.486Z,101417.31
2023-01-24T17:11:28.829Z,101416.50
2023-01-24T17:13:55.965Z,101419.53
2023-01-24T17:16:24.508Z,101412.88
2023-01-24T17:18:51.755Z,101415.19
2023-01-24T17:21:19.059Z,101413.56
2023-01-24T17:23:46.187Z,101422.28
2023-01-24T17:26:14.996Z,101421.88
2023-01-24T17:28:43.617Z,101419.53
2023-01-24T17:31:12.286Z,101423.50
2023-01-24T17:33:40.025Z,101430.50
2023-01-24T17:36:08.688Z,101424.94
2023-01-24T17:38:36.495Z,101422.19
2023-01-24T17:41:04.294Z,101422.28
2023-01-24T17:43:38.137Z,101421.53
2023-01-24T17:46:11.552Z,101421.44
2023-01-24T17:48:38.758Z,101415.97
2023-01-24T17:51:10.235Z,101422.28
2023-01-24T17:53:37.900Z,101414.41
2023-01-24T17:56:08.785Z,101418.69
2023-01-24T17:58:38.695Z,101424.19
2023-01-24T18:01:07.164Z,101418.34
2023-01-24T18:03:37.963Z,101419.88
2023-01-24T18:06:06.454Z,101419.97
2023-01-24T18:08:36.565Z,101421.97
2023-01-24T18:11:14.916Z,101416.06
2023-01-24T18:13:42.816Z,101425.38
2023-01-24T18:16:11.710Z,101421.97
2023-01-24T18:18:40.150Z,101423.50
2023-01-24T18:21:09.369Z,101414.06
2023-01-24T18:23:39.685Z,101421.88
2023-01-24T18:26:08.266Z,101418.00
2023-01-24T18:28:36.492Z,101412.09
2023-01-24T18:31:09.254Z,101408.59
2023-01-24T18:33:37.622Z,101408.59
2023-01-24T18:36:12.544Z,101409.69
2023-01-24T18:38:40.517Z,101409.63
2023-01-24T18:41:08.321Z,101402.69
2023-01-24T18:43:37.889Z,101403.78
2023-01-24T18:46:09.864Z,101401.75
2023-01-24T18:48:40.211Z,101400.19
2023-01-24T18:51:09.293Z,101399.44
2023-01-24T18:53:36.909Z,101401.84
2023-01-24T18:56:06.215Z,101400.97
2023-01-24T18:58:35.713Z,101394.69
2023-01-24T19:01:21.293Z,101402.59
2023-01-24T19:03:49.479Z,101403.25
2023-01-24T19:06:27.009Z,101391.22
2023-01-24T19:09:04.122Z,101394.69
2023-01-24T19:11:34.261Z,101398.66
2023-01-24T19:14:03.878Z,101392.41
2023-01-24T19:16:37.512Z,101401.41
2023-01-24T19:19:09.454Z,101397.03
2023-01-24T19:21:37.633Z,101400.97
2023-01-24T19:24:10.721Z,101395.13
2023-01-24T19:26:40.132Z,101399.53
2023-01-24T19:29:07.675Z,101396.25
2023-01-24T19:31:36.099Z,101397.13
2023-01-24T19:34:05.771Z,101399.09
2023-01-24T19:36:34.932Z,101394.78
2023-01-24T19:39:03.626Z,101397.97
2023-01-24T19:41:31.836Z,101388.66
2023-01-24T19:44:19.031Z,101393.78
2023-01-24T19:46:54.740Z,101389.09
2023-01-24T19:49:22.837Z,101392.59
2023-01-24T19:51:51.026Z,101394.88
2023-01-24T19:54:18.868Z,101399.63
2023-01-24T19:56:47.100Z,101408.28
2023-01-24T19:59:14.335Z,101395.31
2023-01-24T20:01:44.807Z,101400.38
2023-01-24T20:04:33.121Z,101398.41
2023-01-24T20:07:02.341Z,101403.09
2023-01-24T20:09:30.250Z,101400.91
2023-01-24T20:11:58.874Z,101398.84
2023-01-24T20:14:26.374Z,101401.16
2023-01-24T20:16:54.817Z,101396.88
2023-01-24T20:19:28.635Z,101401.94
2023-01-24T20:22:12.846Z,101402.34
2023-01-24T20:24:40.753Z,101396.63
2023-01-24T20:27:09.717Z,101393.44
2023-01-24T20:29:40.074Z,101400.06
2023-01-24T20:32:13.213Z,101395.41
2023-01-24T20:34:48.034Z,101394.56
2023-01-24T20:37:16.889Z,101394.22
2023-01-24T20:39:44.745Z,101400.38
2023-01-24T20:42:13.083Z,101398.75
2023-01-24T20:44:40.968Z,101395.31
2023-01-24T20:47:09.783Z,101391.84
2023-01-24T20:49:37.590Z,101397.31
2023-01-24T20:52:06.222Z,101394.22
2023-01-24T20:54:37.657Z,101397.63
2023-01-24T20:57:05.918Z,101388.75
2023-01-24T20:59:34.743Z,101398.50
2023-01-24T21:02:04.112Z,101404.50
2023-01-24T21:04:34.908Z,101397.06
2023-01-24T21:07:03.695Z,101399.03
2023-01-24T21:09:31.276Z,101399.56
2023-01-24T21:12:01.398Z,101397.50
2023-01-24T21:14:29.178Z,101403.63
2023-01-24T21:16:57.498Z,101398.59
2023-01-24T21:19:26.813Z,101399.38
2023-01-24T21:21:54.594Z,101395.09
2023-01-24T21:24:33.247Z,101391.34
2023-01-24T21:27:02.707Z,101390.22
2023-01-24T21:29:29.939Z,101396.47
2023-01-24T21:32:01.094Z,101395.69
2023-01-24T21:34:28.357Z,101390.66
2023-01-24T21:36:55.995Z,101396.03
2023-01-24T21:39:25.173Z,101397.75
2023-01-24T21:41:57.353Z,101396.13
2023-01-24T21:44:25.999Z,101389.13
2023-01-24T21:46:54.175Z,101394.25
2023-01-24T21:49:21.572Z,101385.16
2023-01-24T21:51:54.202Z,101397.00
2023-01-24T21:54:21.284Z,101393.03
2023-01-24T21:57:30.108Z,101393.91
2023-01-24T22:00:01.815Z,101387.25
2023-01-24T22:02:39.331Z,101393.47
2023-01-24T22:05:10.217Z,101397.34
2023-01-24T22:07:38.048Z,101395.13
2023-01-24T22:10:07.701Z,101391.50
2023-01-24T22:12:35.913Z,101398.50
2023-01-24T22:15:03.280Z,101398.50
2023-01-24T22:17:30.653Z,101394.59
2023-01-24T22:20:00.536Z,101393.91
2023-01-24T22:22:36.724Z,101392.72
2023-01-24T22:25:16.406Z,101393.03
2023-01-24T22:27:44.454Z,101390.00
2023-01-24T22:30:21.820Z,101384.50
2023-01-24T22:32:50.655Z,101386.47
2023-01-24T22:35:19.163Z,101379.53
2023-01-24T22:37:50.662Z,101372.88
2023-01-24T22:40:18.813Z,101366.19
2023-01-24T22:42:46.312Z,101376.78
2023-01-24T22:45:13.328Z,101373.66
2023-01-24T22:47:40.796Z,101364.22
2023-01-24T22:50:08.040Z,101365.34
2023-01-24T22:52:35.512Z,101368.50
2023-01-24T22:55:03.218Z,101365.00
2023-01-24T22:57:30.474Z,101362.78
2023-01-24T22:59:57.858Z,101360.06
2023-01-24T23:02:25.076Z,101357.97
2023-01-24T23:04:52.049Z,101349.09
2023-01-24T23:07:22.451Z,101354.13
2023-01-24T23:09:49.796Z,101353.28
2023-01-24T23:12:35.772Z,101347.97
2023-01-24T23:15:21.500Z,101352.59
2023-01-24T23:17:51.667Z,101346.38
2023-01-24T23:20:36.991Z,101348.31
2023-01-24T23:23:04.189Z,101345.69
2023-01-24T23:25:31.171Z,101346.38
2023-01-24T23:27:58.350Z,101343.63
2023-01-24T23:30:30.830Z,101346.03
2023-01-24T23:33:16.770Z,101335.81
2023-01-24T23:35:43.662Z,101331.91
2023-01-24T23:38:10.967Z,101332.34
2023-01-24T23:40:38.277Z,101328.38
2023-01-24T23:43:05.539Z,101324.47
2023-01-24T23:45:32.641Z,101322.91
2023-01-24T23:48:15.297Z,101316.91
2023-01-24T23:50:45.361Z,101313.81
2023-01-24T23:53:12.522Z,101311.44
2023-01-24T23:55:45.313Z,101317.25
2023-01-24T23:58:17.333Z,101312.19
